Time;durP1;ratioP1;P1;durP2;ratioP2;P2;SDS_P1;SDS_P2;PMS_P1;PMS_P2;Temp;Humidity;BMP_temperature;BMP_pressure;BME280_temperature;BME280_humidity;BME280_pressure;Samples;Min_cycle;Max_cycle;Signal;HPM_P1;HPM_P2
2023/09/17 00:00:33;;;;;;;24.80;13.63;;;;;;;;;;6188859;23;20020;-58
2023/09/17 00:03:03;;;;;;;23.50;13.90;;;;;;;;;;6183810;23;20078;-58
2023/09/17 00:05:33;;;;;;;26.05;14.43;;;;;;;;;;6192091;23;20012;-58
2023/09/17 00:08:01;;;;;;;22.13;14.57;;;;;;;;;;6182651;23;20012;-58
2023/09/17 00:10:29;;;;;;;22.58;14.00;;;;;;;;;;6187407;23;20444;-58
2023/09/17 00:12:56;;;;;;;26.03;14.43;;;;;;;;;;6185376;23;20648;-58
2023/09/17 00:15:25;;;;;;;23.55;14.32;;;;;;;;;;6190879;23;20345;-58
2023/09/17 00:17:53;;;;;;;29.33;15.20;;;;;;;;;;6188816;23;20009;-58
2023/09/17 00:20:22;;;;;;;22.83;13.93;;;;;;;;;;6183963;23;20013;-58
2023/09/17 00:22:51;;;;;;;26.88;15.13;;;;;;;;;;6181146;23;20039;-55
2023/09/17 00:25:19;;;;;;;28.23;15.03;;;;;;;;;;6190684;23;20016;-57
2023/09/17 00:27:47;;;;;;;24.90;15.20;;;;;;;;;;6170535;23;20452;-58
2023/09/17 00:30:15;;;;;;;23.60;15.15;;;;;;;;;;6159185;23;20013;-58
2023/09/17 00:32:43;;;;;;;30.75;16.98;;;;;;;;;;6183164;23;20063;-58
2023/09/17 00:35:11;;;;;;;26.88;15.70;;;;;;;;;;6159827;23;20084;-59
2023/09/17 00:37:40;;;;;;;28.80;14.93;;;;;;;;;;6157150;23;20179;-58
2023/09/17 00:40:11;;;;;;;24.83;14.68;;;;;;;;;;6191282;23;20470;-58
2023/09/17 00:42:40;;;;;;;24.88;15.68;;;;;;;;;;6178559;23;20100;-58
2023/09/17 00:45:09;;;;;;;26.23;15.73;;;;;;;;;;6191815;23;20013;-58
2023/09/17 00:47:37;;;;;;;29.65;15.57;;;;;;;;;;6182936;23;20475;-58
2023/09/17 00:50:06;;;;;;;28.00;15.97;;;;;;;;;;6185280;23;20017;-58
2023/09/17 00:52:34;;;;;;;29.30;15.35;;;;;;;;;;6189504;23;20649;-58
2023/09/17 00:55:03;;;;;;;27.45;16.08;;;;;;;;;;6185706;23;20595;-58
2023/09/17 00:57:33;;;;;;;25.27;15.95;;;;;;;;;;6191795;23;20399;-57
2023/09/17 01:00:08;;;;;;;31.35;16.67;;;;;;;;;;6188613;23;20016;-58
2023/09/17 01:02:37;;;;;;;26.43;16.33;;;;;;;;;;6189034;23;20042;-58
2023/09/17 01:05:05;;;;;;;28.85;16.80;;;;;;;;;;6186538;23;20017;-58
2023/09/17 01:07:33;;;;;;;25.95;15.57;;;;;;;;;;6192103;23;20076;-58
2023/09/17 01:10:01;;;;;;;24.13;15.73;;;;;;;;;;6143262;23;20264;-57
2023/09/17 01:12:29;;;;;;;25.63;16.80;;;;;;;;;;6182107;23;20020;-58
2023/09/17 01:14:58;;;;;;;26.93;15.50;;;;;;;;;;6188243;23;20452;-58
2023/09/17 01:17:27;;;;;;;24.95;15.77;;;;;;;;;;6188517;23;20020;-58
2023/09/17 01:19:55;;;;;;;26.13;16.08;;;;;;;;;;6163160;23;20448;-58
2023/09/17 01:22:29;;;;;;;26.35;15.93;;;;;;;;;;6164239;23;20051;-58
2023/09/17 01:25:05;;;;;;;29.83;16.30;;;;;;;;;;6192006;23;20087;-59
2023/09/17 01:27:35;;;;;;;27.30;16.30;;;;;;;;;;6190004;23;20024;-58
2023/09/17 01:30:05;;;;;;;26.10;15.90;;;;;;;;;;6193388;23;20017;-58
2023/09/17 01:32:33;;;;;;;24.85;15.50;;;;;;;;;;6184777;23;20047;-58
2023/09/17 01:35:01;;;;;;;27.15;16.15;;;;;;;;;;6191078;23;20035;-58
2023/09/17 01:37:30;;;;;;;26.08;16.23;;;;;;;;;;6179330;23;20020;-58
2023/09/17 01:40:00;;;;;;;27.50;15.87;;;;;;;;;;6191627;23;20128;-58
2023/09/17 01:42:29;;;;;;;25.90;15.55;;;;;;;;;;6179912;23;20016;-58
2023/09/17 01:44:59;;;;;;;25.80;15.88;;;;;;;;;;6191081;23;20149;-58
2023/09/17 01:47:27;;;;;;;25.38;16.15;;;;;;;;;;6184273;23;20123;-57
2023/09/17 01:49:57;;;;;;;23.48;15.55;;;;;;;;;;6193357;23;20103;-58
2023/09/17 01:52:26;;;;;;;25.63;15.47;;;;;;;;;;6186805;23;20021;-58
2023/09/17 01:54:54;;;;;;;29.92;16.33;;;;;;;;;;6169331;23;20013;-59
2023/09/17 01:57:22;;;;;;;26.45;16.23;;;;;;;;;;6188119;23;20020;-58
2023/09/17 01:59:50;;;;;;;24.10;14.90;;;;;;;;;;6197962;23;20024;-56
2023/09/17 02:02:23;;;;;;;25.35;15.65;;;;;;;;;;6194165;23;20020;-59
2023/09/17 02:04:51;;;;;;;26.00;16.17;;;;;;;;;;6190588;23;20025;-57
2023/09/17 02:07:19;;;;;;;29.88;16.80;;;;;;;;;;6171069;23;20092;-58
2023/09/17 02:09:46;;;;;;;27.02;16.60;;;;;;;;;;6192944;23;20040;-58
2023/09/17 02:12:15;;;;;;;28.92;16.83;;;;;;;;;;6194567;23;20705;-58
2023/09/17 02:14:43;;;;;;;28.65;15.60;;;;;;;;;;6191760;23;20039;-58
2023/09/17 02:17:11;;;;;;;27.63;15.63;;;;;;;;;;6192491;23;20304;-56
2023/09/17 02:19:42;;;;;;;28.40;15.52;;;;;;;;;;6169681;23;20095;-58
2023/09/17 02:22:09;;;;;;;30.20;16.73;;;;;;;;;;6192313;23;20417;-58
2023/09/17 02:24:38;;;;;;;28.75;15.27;;;;;;;;;;6191574;23;20088;-57
2023/09/17 02:27:05;;;;;;;30.35;16.38;;;;;;;;;;6191460;23;20021;-57
2023/09/17 02:29:33;;;;;;;27.97;17.00;;;;;;;;;;6194282;23;20059;-58
2023/09/17 02:32:02;;;;;;;33.75;16.45;;;;;;;;;;6179576;23;20028;-58
2023/09/17 02:34:30;;;;;;;28.90;17.10;;;;;;;;;;6197266;23;20075;-57
2023/09/17 02:36:59;;;;;;;33.25;17.67;;;;;;;;;;6182232;23;20778;-58
2023/09/17 02:39:27;;;;;;;29.08;16.92;;;;;;;;;;6193958;23;20436;-58
2023/09/17 02:41:55;;;;;;;27.10;15.67;;;;;;;;;;6163539;23;20143;-58
2023/09/17 02:44:23;;;;;;;32.65;17.52;;;;;;;;;;6192386;23;20028;-58
2023/09/17 02:46:51;;;;;;;27.10;16.42;;;;;;;;;;6190482;23;20020;-57
2023/09/17 02:49:21;;;;;;;31.77;17.10;;;;;;;;;;6192751;23;20043;-58
2023/09/17 02:51:50;;;;;;;33.58;18.30;;;;;;;;;;6188021;23;20484;-58
2023/09/17 02:54:20;;;;;;;28.17;16.40;;;;;;;;;;6155016;23;20353;-58
2023/09/17 02:56:47;;;;;;;30.10;17.52;;;;;;;;;;6187168;23;20099;-57
2023/09/17 02:59:15;;;;;;;30.63;16.77;;;;;;;;;;6195357;23;20067;-58
2023/09/17 03:01:43;;;;;;;27.30;16.67;;;;;;;;;;6190431;23;20012;-58
2023/09/17 03:04:11;;;;;;;34.00;17.73;;;;;;;;;;6187961;23;20050;-57
2023/09/17 03:06:39;;;;;;;31.53;16.77;;;;;;;;;;6195538;23;20016;-58
2023/09/17 03:09:11;;;;;;;28.42;16.55;;;;;;;;;;6190150;23;20450;-58
2023/09/17 03:11:41;;;;;;;29.38;16.73;;;;;;;;;;6192262;23;20036;-57
2023/09/17 03:14:09;;;;;;;31.00;17.27;;;;;;;;;;6190351;23;20070;-58
2023/09/17 03:16:37;;;;;;;31.45;16.98;;;;;;;;;;6190995;23;20043;-58
2023/09/17 03:19:05;;;;;;;34.73;17.13;;;;;;;;;;6193096;23;20530;-58
2023/09/17 03:21:34;;;;;;;28.10;16.30;;;;;;;;;;6190716;23;20021;-58
2023/09/17 03:24:05;;;;;;;31.02;16.67;;;;;;;;;;6189607;23;20503;-58
2023/09/17 03:26:34;;;;;;;29.48;16.65;;;;;;;;;;6190087;23;20460;-58
2023/09/17 03:29:03;;;;;;;33.30;17.83;;;;;;;;;;6194641;23;20017;-57
2023/09/17 03:31:32;;;;;;;30.17;17.53;;;;;;;;;;6160156;23;20445;-58
2023/09/17 03:34:01;;;;;;;31.50;16.08;;;;;;;;;;6194523;23;20047;-57
2023/09/17 03:36:28;;;;;;;26.70;15.98;;;;;;;;;;6187421;23;20022;-57
2023/09/17 03:38:56;;;;;;;30.95;16.65;;;;;;;;;;6195762;23;20029;-58
2023/09/17 03:41:25;;;;;;;28.23;16.35;;;;;;;;;;6188273;23;20019;-58
2023/09/17 03:43:52;;;;;;;25.93;15.97;;;;;;;;;;6170597;23;20478;-58
2023/09/17 03:46:22;;;;;;;28.02;15.95;;;;;;;;;;6185651;23;20051;-58
2023/09/17 03:48:50;;;;;;;30.20;16.10;;;;;;;;;;6197693;23;20012;-58
2023/09/17 03:51:18;;;;;;;28.10;15.65;;;;;;;;;;6181297;23;20096;-59
2023/09/17 03:53:47;;;;;;;28.88;16.27;;;;;;;;;;6188346;23;20024;-58
2023/09/17 03:56:17;;;;;;;34.17;15.80;;;;;;;;;;6195071;23;20051;-58
2023/09/17 03:58:44;;;;;;;28.90;16.30;;;;;;;;;;6189161;23;20098;-58
2023/09/17 04:01:13;;;;;;;26.67;15.80;;;;;;;;;;6166293;23;20012;-58
2023/09/17 04:03:43;;;;;;;27.20;15.43;;;;;;;;;;6191468;23;20021;-58
2023/09/17 04:06:11;;;;;;;28.40;15.77;;;;;;;;;;6196823;23;20074;-57
2023/09/17 04:08:38;;;;;;;27.57;15.80;;;;;;;;;;6181950;23;20350;-58
2023/09/17 04:11:06;;;;;;;28.95;14.93;;;;;;;;;;6194586;23;20082;-58
2023/09/17 04:13:34;;;;;;;30.27;15.68;;;;;;;;;;6189490;23;20039;-58
2023/09/17 04:16:03;;;;;;;35.13;15.23;;;;;;;;;;6189204;23;20016;-58
2023/09/17 04:18:32;;;;;;;27.90;16.30;;;;;;;;;;6192095;23;20020;-57
2023/09/17 04:21:01;;;;;;;29.73;15.50;;;;;;;;;;6195261;23;20027;-58
2023/09/17 04:23:28;;;;;;;31.70;15.80;;;;;;;;;;6190327;23;20016;-58
2023/09/17 04:25:57;;;;;;;31.80;15.75;;;;;;;;;;6163345;23;20013;-58
2023/09/17 04:28:25;;;;;;;31.52;15.48;;;;;;;;;;6192832;23;20374;-58
2023/09/17 04:30:52;;;;;;;29.60;15.27;;;;;;;;;;6197379;23;20095;-57
2023/09/17 04:33:20;;;;;;;30.57;15.70;;;;;;;;;;6189867;23;20017;-57
2023/09/17 04:35:49;;;;;;;25.42;14.82;;;;;;;;;;6196358;23;20423;-58
2023/09/17 04:38:18;;;;;;;31.45;15.15;;;;;;;;;;6186276;23;20017;-58
2023/09/17 04:40:46;;;;;;;28.38;15.65;;;;;;;;;;6194073;23;20013;-58
2023/09/17 04:43:14;;;;;;;30.38;16.10;;;;;;;;;;6190162;23;20025;-57
2023/09/17 04:45:44;;;;;;;28.87;15.47;;;;;;;;;;6196956;23;20084;-58
2023/09/17 04:48:13;;;;;;;34.03;16.48;;;;;;;;;;6195320;23;20017;-58
2023/09/17 04:50:42;;;;;;;31.73;15.75;;;;;;;;;;6181943;23;20036;-58
2023/09/17 04:53:14;;;;;;;29.65;16.75;;;;;;;;;;6191440;23;20315;-56
2023/09/17 04:55:45;;;;;;;33.85;16.35;;;;;;;;;;6186733;23;20477;-58
2023/09/17 04:58:13;;;;;;;33.70;16.83;;;;;;;;;;6192006;23;20099;-57
2023/09/17 05:00:41;;;;;;;32.88;16.58;;;;;;;;;;6180849;23;20016;-58
2023/09/17 05:03:10;;;;;;;33.80;17.20;;;;;;;;;;6188796;23;20016;-58
2023/09/17 05:05:38;;;;;;;30.45;16.33;;;;;;;;;;6185822;23;20437;-57
2023/09/17 05:08:06;;;;;;;31.23;17.30;;;;;;;;;;6191154;23;20016;-58
2023/09/17 05:10:34;;;;;;;31.37;16.90;;;;;;;;;;6185253;23;20020;-57
2023/09/17 05:13:05;;;;;;;35.22;17.08;;;;;;;;;;6155971;23;20507;-57
2023/09/17 05:15:34;;;;;;;34.28;16.85;;;;;;;;;;6184964;23;20013;-57
2023/09/17 05:18:09;;;;;;;34.10;16.80;;;;;;;;;;6190022;23;20107;-57
2023/09/17 05:20:38;;;;;;;33.60;17.48;;;;;;;;;;6186680;23;20020;-57
2023/09/17 05:23:06;;;;;;;33.07;17.63;;;;;;;;;;6188877;23;20023;-57
2023/09/17 05:25:36;;;;;;;36.05;17.50;;;;;;;;;;6192316;23;20044;-57
2023/09/17 05:28:06;;;;;;;35.00;18.55;;;;;;;;;;6188265;23;20013;-57
2023/09/17 05:30:35;;;;;;;36.20;18.35;;;;;;;;;;6192801;23;20021;-59
2023/09/17 05:33:04;;;;;;;33.70;17.33;;;;;;;;;;6186376;23;20024;-56
2023/09/17 05:35:31;;;;;;;35.10;17.53;;;;;;;;;;6193899;23;20012;-57
2023/09/17 05:38:00;;;;;;;40.47;18.75;;;;;;;;;;6181196;23;20024;-57
2023/09/17 05:40:28;;;;;;;35.95;19.17;;;;;;;;;;6188222;23;20017;-57
2023/09/17 05:42:57;;;;;;;38.30;19.73;;;;;;;;;;6184838;23;20013;-57
2023/09/17 05:45:27;;;;;;;37.92;19.40;;;;;;;;;;6192185;23;20127;-56
2023/09/17 05:47:54;;;;;;;37.27;19.40;;;;;;;;;;6182201;23;20016;-56
2023/09/17 05:50:22;;;;;;;39.95;19.58;;;;;;;;;;6189799;23;20055;-57
2023/09/17 05:52:50;;;;;;;40.13;20.05;;;;;;;;;;6182138;23;20024;-57
2023/09/17 05:55:19;;;;;;;37.88;20.67;;;;;;;;;;6189444;23;20024;-57
2023/09/17 05:57:49;;;;;;;37.65;19.33;;;;;;;;;;6164216;23;20021;-57
2023/09/17 06:00:19;;;;;;;36.33;19.40;;;;;;;;;;6158400;23;20020;-57
2023/09/17 06:02:48;;;;;;;39.85;19.88;;;;;;;;;;6187182;23;20023;-57
2023/09/17 06:05:18;;;;;;;38.05;20.00;;;;;;;;;;6185519;23;20013;-58
2023/09/17 06:07:46;;;;;;;35.08;19.90;;;;;;;;;;6193239;23;20023;-57
2023/09/17 06:10:14;;;;;;;38.25;19.77;;;;;;;;;;6185152;23;20016;-56
2023/09/17 06:12:42;;;;;;;36.63;18.40;;;;;;;;;;6193733;23;20329;-57
2023/09/17 06:15:10;;;;;;;36.08;19.70;;;;;;;;;;6182438;23;20020;-56
2023/09/17 06:17:39;;;;;;;39.47;18.63;;;;;;;;;;6187072;23;20017;-58
2023/09/17 06:20:09;;;;;;;39.72;19.17;;;;;;;;;;6163334;23;20502;-57
2023/09/17 06:22:37;;;;;;;39.38;18.10;;;;;;;;;;6188525;23;20016;-57
2023/09/17 06:25:06;;;;;;;39.27;19.63;;;;;;;;;;6184862;23;20100;-58
2023/09/17 06:27:34;;;;;;;33.58;18.92;;;;;;;;;;6187863;23;20170;-57
2023/09/17 06:30:03;;;;;;;33.55;19.02;;;;;;;;;;6184020;23;20012;-57
2023/09/17 06:32:31;;;;;;;33.28;17.63;;;;;;;;;;6189834;23;20024;-57
2023/09/17 06:34:59;;;;;;;38.88;20.10;;;;;;;;;;6158771;23;20036;-56
2023/09/17 06:37:29;;;;;;;35.37;18.33;;;;;;;;;;6189746;23;20039;-57
2023/09/17 06:39:57;;;;;;;38.33;18.92;;;;;;;;;;6188727;23;20020;-57
2023/09/17 06:42:26;;;;;;;35.97;18.27;;;;;;;;;;6187747;23;20470;-57
2023/09/17 06:44:56;;;;;;;35.00;18.38;;;;;;;;;;6188092;23;20021;-57
2023/09/17 06:47:28;;;;;;;41.95;19.23;;;;;;;;;;6182715;23;20059;-57
2023/09/17 06:49:56;;;;;;;33.57;19.00;;;;;;;;;;6192716;23;20033;-57
2023/09/17 06:52:27;;;;;;;34.20;18.33;;;;;;;;;;6184583;23;20485;-57
2023/09/17 06:54:56;;;;;;;34.67;18.92;;;;;;;;;;6193586;23;20075;-57
2023/09/17 06:57:24;;;;;;;35.78;18.33;;;;;;;;;;6182465;23;20704;-57
2023/09/17 06:59:52;;;;;;;31.25;17.83;;;;;;;;;;6191958;23;20020;-55
2023/09/17 07:02:19;;;;;;;37.40;18.83;;;;;;;;;;6180623;23;20044;-57
2023/09/17 07:04:47;;;;;;;38.92;19.48;;;;;;;;;;6192350;23;20017;-57
2023/09/17 07:07:16;;;;;;;37.97;18.55;;;;;;;;;;6182534;23;20009;-57
2023/09/17 07:09:43;;;;;;;34.05;17.98;;;;;;;;;;6192014;23;20012;-58
2023/09/17 07:12:12;;;;;;;37.92;18.77;;;;;;;;;;6183035;23;20075;-57
2023/09/17 07:14:41;;;;;;;38.13;18.67;;;;;;;;;;6193335;23;20470;-57
2023/09/17 07:17:09;;;;;;;39.75;19.05;;;;;;;;;;6189075;23;20020;-57
2023/09/17 07:19:37;;;;;;;38.90;18.23;;;;;;;;;;6176290;23;20111;-58
2023/09/17 07:22:10;;;;;;;38.90;19.70;;;;;;;;;;6187610;23;20477;-57
2023/09/17 07:24:40;;;;;;;42.13;20.38;;;;;;;;;;6184091;23;20399;-58
2023/09/17 07:27:07;;;;;;;41.53;19.83;;;;;;;;;;6189813;23;20451;-58
2023/09/17 07:29:38;;;;;;;47.30;18.90;;;;;;;;;;6185966;23;20020;-58
2023/09/17 07:32:06;;;;;;;41.20;19.77;;;;;;;;;;6189595;23;20348;-56
2023/09/17 07:34:36;;;;;;;40.35;21.23;;;;;;;;;;6184181;23;20013;-58
2023/09/17 07:37:05;;;;;;;42.17;20.20;;;;;;;;;;6163937;23;20071;-57
2023/09/17 07:39:33;;;;;;;40.67;21.20;;;;;;;;;;6179719;23;20476;-56
2023/09/17 07:42:02;;;;;;;45.28;22.02;;;;;;;;;;6193795;23;20435;-57
2023/09/17 07:44:30;;;;;;;42.47;22.23;;;;;;;;;;6180963;23;20094;-57
2023/09/17 07:46:59;;;;;;;46.47;22.25;;;;;;;;;;6191322;23;20024;-57
2023/09/17 07:49:29;;;;;;;41.95;21.38;;;;;;;;;;6181312;23;20675;-57
2023/09/17 07:51:57;;;;;;;50.23;21.87;;;;;;;;;;6193804;23;20016;-58
2023/09/17 07:54:25;;;;;;;47.95;22.20;;;;;;;;;;6181759;23;20017;-57
2023/09/17 07:56:53;;;;;;;49.50;22.23;;;;;;;;;;6165014;23;20359;-57
2023/09/17 07:59:21;;;;;;;47.22;22.50;;;;;;;;;;6185597;23;20492;-58
2023/09/17 08:01:51;;;;;;;44.42;22.23;;;;;;;;;;6184523;23;20120;-58
2023/09/17 08:04:20;;;;;;;45.87;23.27;;;;;;;;;;6185108;23;20013;-58
2023/09/17 08:06:49;;;;;;;44.30;21.60;;;;;;;;;;6166114;23;20043;-57
2023/09/17 08:09:17;;;;;;;47.17;22.88;;;;;;;;;;6157507;23;20052;-58
2023/09/17 08:11:47;;;;;;;47.35;21.17;;;;;;;;;;6188667;23;20012;-57
2023/09/17 08:14:14;;;;;;;43.63;22.73;;;;;;;;;;6192145;23;20027;-57
2023/09/17 08:16:42;;;;;;;46.43;23.83;;;;;;;;;;6193255;23;20020;-57
2023/09/17 08:19:11;;;;;;;43.10;20.52;;;;;;;;;;6166694;23;20035;-57
2023/09/17 08:21:42;;;;;;;48.67;22.50;;;;;;;;;;6189998;23;20086;-57
2023/09/17 08:24:10;;;;;;;46.25;22.38;;;;;;;;;;6193896;23;20044;-57
2023/09/17 08:26:38;;;;;;;45.63;23.45;;;;;;;;;;6184058;23;20466;-58
2023/09/17 08:29:06;;;;;;;48.40;22.90;;;;;;;;;;6192886;23;20017;-58
2023/09/17 08:31:34;;;;;;;41.78;22.38;;;;;;;;;;6179798;23;20338;-57
2023/09/17 08:34:03;;;;;;;46.05;21.38;;;;;;;;;;6196500;23;20023;-58
2023/09/17 08:36:32;;;;;;;43.22;21.30;;;;;;;;;;6185895;23;20044;-57
2023/09/17 08:39:03;;;;;;;42.60;21.95;;;;;;;;;;6168922;23;20103;-58
2023/09/17 08:41:31;;;;;;;42.43;22.03;;;;;;;;;;6186665;23;20363;-57
2023/09/17 08:43:59;;;;;;;46.03;22.80;;;;;;;;;;6195725;23;20042;-58
2023/09/17 08:46:29;;;;;;;46.65;22.30;;;;;;;;;;6189398;23;20085;-58
2023/09/17 08:48:58;;;;;;;42.80;21.23;;;;;;;;;;6182964;23;20012;-59
2023/09/17 08:51:26;;;;;;;44.85;23.40;;;;;;;;;;6194220;23;20016;-58
2023/09/17 08:53:58;;;;;;;41.90;21.80;;;;;;;;;;6188341;23;20012;-58
2023/09/17 08:56:27;;;;;;;46.17;21.27;;;;;;;;;;6192966;23;20024;-58
2023/09/17 08:59:00;;;;;;;46.92;20.83;;;;;;;;;;6186463;23;20017;-58
2023/09/17 09:01:28;;;;;;;41.22;21.50;;;;;;;;;;6184194;23;20036;-58
2023/09/17 09:03:57;;;;;;;40.30;20.67;;;;;;;;;;6183113;23;20023;-58
2023/09/17 09:06:25;;;;;;;39.80;21.17;;;;;;;;;;6191970;23;20017;-57
2023/09/17 09:08:53;;;;;;;38.47;21.63;;;;;;;;;;6183651;23;20048;-58
2023/09/17 09:11:22;;;;;;;42.97;21.70;;;;;;;;;;6192236;23;20052;-58
2023/09/17 09:13:53;;;;;;;36.55;21.27;;;;;;;;;;6189816;23;20025;-58
2023/09/17 09:16:21;;;;;;;40.13;20.73;;;;;;;;;;6188447;23;20047;-60
2023/09/17 09:18:49;;;;;;;39.03;20.53;;;;;;;;;;6187602;23;20067;-58
2023/09/17 09:21:17;;;;;;;39.13;20.30;;;;;;;;;;6179026;23;20455;-59
2023/09/17 09:23:45;;;;;;;41.55;19.55;;;;;;;;;;6188189;23;20020;-59
2023/09/17 09:26:13;;;;;;;34.65;19.48;;;;;;;;;;6181554;23;20143;-58
2023/09/17 09:28:40;;;;;;;35.05;19.73;;;;;;;;;;6161685;23;20024;-58
2023/09/17 09:31:13;;;;;;;34.10;19.47;;;;;;;;;;6191317;23;20099;-58
2023/09/17 09:33:42;;;;;;;35.63;18.85;;;;;;;;;;6193168;23;20024;-57
2023/09/17 09:36:11;;;;;;;33.72;18.20;;;;;;;;;;6182068;23;20021;-58
2023/09/17 09:38:39;;;;;;;37.40;19.35;;;;;;;;;;6188188;23;20013;-58
2023/09/17 09:41:07;;;;;;;33.15;18.85;;;;;;;;;;6174092;23;20020;-58
2023/09/17 09:43:35;;;;;;;38.63;20.33;;;;;;;;;;6188124;23;20023;-58
2023/09/17 09:46:04;;;;;;;36.55;19.88;;;;;;;;;;6190486;23;20304;-58
2023/09/17 09:48:37;;;;;;;33.47;18.63;;;;;;;;;;6189794;23;20016;-57
2023/09/17 09:51:06;;;;;;;37.28;18.73;;;;;;;;;;6182859;23;20032;-58
2023/09/17 09:53:34;;;;;;;37.47;18.95;;;;;;;;;;6192589;23;20016;-58
2023/09/17 09:56:03;;;;;;;39.43;19.47;;;;;;;;;;6189025;23;20016;-58
2023/09/17 09:58:31;;;;;;;41.83;19.42;;;;;;;;;;6189814;23;20027;-58
2023/09/17 10:01:02;;;;;;;36.28;19.05;;;;;;;;;;6177436;23;20479;-59
2023/09/17 10:03:30;;;;;;;32.50;18.55;;;;;;;;;;6192186;23;20025;-59
2023/09/17 10:06:03;;;;;;;37.00;19.08;;;;;;;;;;6156069;23;20355;-58
2023/09/17 10:08:34;;;;;;;29.73;18.40;;;;;;;;;;6182482;23;20020;-59
2023/09/17 10:11:03;;;;;;;31.20;17.52;;;;;;;;;;6194756;23;20019;-58
2023/09/17 10:13:32;;;;;;;32.53;17.95;;;;;;;;;;6182256;23;20071;-58
2023/09/17 10:16:01;;;;;;;29.77;16.75;;;;;;;;;;6187923;23;20043;-58
2023/09/17 10:18:31;;;;;;;34.42;18.10;;;;;;;;;;6191388;23;20115;-58
2023/09/17 10:21:00;;;;;;;32.97;18.33;;;;;;;;;;6188863;23;20024;-58
2023/09/17 10:23:28;;;;;;;32.92;17.10;;;;;;;;;;6187760;23;20047;-58
2023/09/17 10:25:58;;;;;;;29.58;17.55;;;;;;;;;;6183445;23;20021;-58
2023/09/17 10:28:25;;;;;;;31.67;18.20;;;;;;;;;;6184314;23;20026;-58
2023/09/17 10:30:54;;;;;;;27.33;16.98;;;;;;;;;;6159998;23;20448;-56
2023/09/17 10:33:24;;;;;;;28.90;16.20;;;;;;;;;;6185325;23;20016;-59
2023/09/17 10:35:52;;;;;;;28.77;15.95;;;;;;;;;;6193596;23;20019;-56
2023/09/17 10:38:22;;;;;;;28.77;15.25;;;;;;;;;;6158748;23;20375;-57
2023/09/17 10:40:52;;;;;;;32.92;16.30;;;;;;;;;;6187830;23;20020;-57
2023/09/17 10:43:21;;;;;;;26.08;15.48;;;;;;;;;;6191030;23;20013;-58
2023/09/17 10:45:50;;;;;;;24.47;16.03;;;;;;;;;;6185960;23;20039;-57
2023/09/17 10:48:20;;;;;;;22.65;14.80;;;;;;;;;;6192038;23;20012;-57
2023/09/17 10:50:49;;;;;;;22.17;14.05;;;;;;;;;;6182666;23;20020;-59
2023/09/17 10:53:17;;;;;;;23.65;13.85;;;;;;;;;;6191123;23;20012;-57
2023/09/17 10:55:48;;;;;;;22.42;14.48;;;;;;;;;;6183205;23;20020;-57
2023/09/17 10:58:18;;;;;;;28.53;13.93;;;;;;;;;;6190046;23;20083;-59
2023/09/17 11:00:47;;;;;;;17.30;11.15;;;;;;;;;;6181922;23;20028;-59
2023/09/17 11:03:18;;;;;;;24.13;12.18;;;;;;;;;;6181895;23;20020;-59
2023/09/17 11:05:47;;;;;;;18.40;10.82;;;;;;;;;;6183742;23;20021;-59
2023/09/17 11:08:15;;;;;;;18.63;11.70;;;;;;;;;;6188018;23;20024;-59
2023/09/17 11:10:44;;;;;;;20.10;11.40;;;;;;;;;;6182432;23;20462;-59
2023/09/17 11:13:14;;;;;;;19.90;11.48;;;;;;;;;;6191354;23;20070;-58
2023/09/17 11:15:42;;;;;;;23.42;12.90;;;;;;;;;;6186088;23;20284;-57
2023/09/17 11:18:10;;;;;;;20.42;12.25;;;;;;;;;;6185397;23;20078;-57
2023/09/17 11:20:53;;;;;;;17.85;12.38;;;;;;;;;;6190078;23;20024;-57
2023/09/17 11:23:35;;;;;;;17.83;11.17;;;;;;;;;;6190506;23;20023;-57
2023/09/17 11:26:03;;;;;;;19.17;11.35;;;;;;;;;;6186250;23;20020;-57
2023/09/17 11:28:36;;;;;;;19.33;11.40;;;;;;;;;;6186804;23;20020;-56
2023/09/17 11:31:09;;;;;;;20.73;11.45;;;;;;;;;;6189501;23;20044;-57
2023/09/17 11:33:39;;;;;;;20.63;12.85;;;;;;;;;;6191352;23;20040;-57
2023/09/17 11:36:08;;;;;;;19.83;12.73;;;;;;;;;;6177610;23;20017;-57
2023/09/17 11:38:36;;;;;;;23.55;12.90;;;;;;;;;;6189635;23;20091;-58
2023/09/17 11:41:04;;;;;;;21.35;11.27;;;;;;;;;;6182812;23;20023;-57
2023/09/17 11:43:33;;;;;;;22.30;12.38;;;;;;;;;;6193529;23;20016;-57
2023/09/17 11:46:05;;;;;;;23.33;12.45;;;;;;;;;;6184621;23;20253;-57
2023/09/17 11:48:35;;;;;;;20.03;12.23;;;;;;;;;;6188378;23;20040;-57
2023/09/17 11:51:22;;;;;;;23.77;13.18;;;;;;;;;;6157362;23;20013;-57
2023/09/17 11:53:57;;;;;;;23.27;14.40;;;;;;;;;;6185922;23;20108;-57
2023/09/17 11:56:26;;;;;;;27.20;14.88;;;;;;;;;;6190776;23;20017;-57
2023/09/17 11:59:02;;;;;;;24.40;14.10;;;;;;;;;;6180912;23;20063;-58
2023/09/17 12:01:33;;;;;;;26.47;15.00;;;;;;;;;;6182984;23;20021;-57
2023/09/17 12:04:03;;;;;;;22.23;14.68;;;;;;;;;;6177991;23;20225;-57
2023/09/17 12:06:35;;;;;;;23.65;14.93;;;;;;;;;;6145354;23;20016;-57
2023/09/17 12:09:10;;;;;;;28.88;16.02;;;;;;;;;;6189751;23;20025;-57
2023/09/17 12:11:38;;;;;;;25.75;15.65;;;;;;;;;;6165066;23;20023;-57
2023/09/17 12:14:07;;;;;;;25.80;15.47;;;;;;;;;;6182350;23;20021;-58
2023/09/17 12:16:36;;;;;;;25.77;15.85;;;;;;;;;;6159732;23;20063;-58
2023/09/17 12:19:04;;;;;;;25.63;14.02;;;;;;;;;;6156186;23;20017;-57
2023/09/17 12:21:46;;;;;;;22.58;12.82;;;;;;;;;;6192091;23;20259;-57
2023/09/17 12:24:20;;;;;;;25.63;15.23;;;;;;;;;;6176561;23;20077;-57
2023/09/17 12:27:08;;;;;;;19.83;12.20;;;;;;;;;;6182230;23;20020;-57
2023/09/17 12:29:38;;;;;;;23.25;15.18;;;;;;;;;;6180957;23;20017;-57
2023/09/17 12:32:07;;;;;;;18.95;12.95;;;;;;;;;;6186401;23;20018;-57
2023/09/17 12:34:35;;;;;;;25.45;15.73;;;;;;;;;;6183496;23;20043;-58
2023/09/17 12:37:05;;;;;;;22.42;14.73;;;;;;;;;;6186934;23;20016;-57
2023/09/17 12:39:32;;;;;;;25.60;15.20;;;;;;;;;;6133875;23;20017;-57
2023/09/17 12:42:00;;;;;;;24.50;15.35;;;;;;;;;;6191962;23;20055;-57
2023/09/17 12:44:28;;;;;;;29.08;16.42;;;;;;;;;;6156273;23;20016;-58
2023/09/17 12:46:56;;;;;;;28.60;15.80;;;;;;;;;;6192933;23;20074;-58
2023/09/17 12:49:26;;;;;;;28.70;16.58;;;;;;;;;;6183095;23;20810;-58
2023/09/17 12:51:54;;;;;;;28.70;17.07;;;;;;;;;;6177665;23;20031;-59
2023/09/17 12:54:23;;;;;;;27.13;16.70;;;;;;;;;;6168832;23;20024;-59
2023/09/17 12:56:51;;;;;;;29.35;18.55;;;;;;;;;;6187208;23;20016;-58
2023/09/17 12:59:26;;;;;;;31.00;17.25;;;;;;;;;;6171785;23;20024;-58
2023/09/17 13:01:55;;;;;;;31.45;17.73;;;;;;;;;;6183725;23;20052;-58
2023/09/17 13:04:39;;;;;;;30.70;17.60;;;;;;;;;;6129467;23;20423;-58
2023/09/17 13:07:14;;;;;;;33.53;18.42;;;;;;;;;;6169851;23;20016;-58
2023/09/17 13:09:42;;;;;;;34.58;19.10;;;;;;;;;;6189321;23;20021;-58
2023/09/17 13:12:11;;;;;;;30.85;18.02;;;;;;;;;;6178045;23;20016;-58
2023/09/17 13:14:39;;;;;;;42.00;20.73;;;;;;;;;;6180207;23;20016;-58
2023/09/17 13:17:07;;;;;;;33.60;19.20;;;;;;;;;;6187523;23;20028;-58
2023/09/17 13:19:36;;;;;;;20.40;12.50;;;;;;;;;;6185677;23;20016;-58
2023/09/17 13:22:05;;;;;;;18.85;9.13;;;;;;;;;;6190486;23;20036;-59
2023/09/17 13:24:34;;;;;;;15.68;9.65;;;;;;;;;;6179969;23;20755;-58
2023/09/17 13:27:03;;;;;;;16.73;9.82;;;;;;;;;;6185021;23;20420;-59
2023/09/17 13:29:36;;;;;;;20.33;13.80;;;;;;;;;;6187588;23;20024;-58
2023/09/17 13:32:07;;;;;;;23.52;13.68;;;;;;;;;;6188555;23;20046;-59
2023/09/17 13:34:35;;;;;;;12.13;7.00;;;;;;;;;;6180709;23;20021;-61
2023/09/17 13:37:03;;;;;;;17.65;9.60;;;;;;;;;;6184431;23;20094;-58
2023/09/17 13:39:33;;;;;;;16.73;9.55;;;;;;;;;;6178406;23;20024;-57
2023/09/17 13:42:00;;;;;;;18.53;11.40;;;;;;;;;;6181733;23;20352;-58
2023/09/17 13:44:28;;;;;;;20.30;10.82;;;;;;;;;;6172798;23;20035;-58
2023/09/17 13:46:56;;;;;;;13.25;7.68;;;;;;;;;;6192231;23;20016;-58
2023/09/17 13:49:23;;;;;;;21.33;12.75;;;;;;;;;;6177966;23;20437;-59
2023/09/17 13:51:51;;;;;;;26.92;12.43;;;;;;;;;;6182074;23;20021;-56
2023/09/17 13:54:19;;;;;;;22.57;12.43;;;;;;;;;;6187086;23;20053;-59
2023/09/17 13:56:48;;;;;;;22.02;13.43;;;;;;;;;;6187185;23;20083;-59
2023/09/17 13:59:15;;;;;;;21.15;12.40;;;;;;;;;;6183788;23;20462;-59
2023/09/17 14:01:45;;;;;;;17.38;10.30;;;;;;;;;;6184395;23;20092;-59
2023/09/17 14:04:13;;;;;;;22.15;12.15;;;;;;;;;;6182643;23;20020;-60
2023/09/17 14:06:40;;;;;;;23.50;12.33;;;;;;;;;;6191046;23;20028;-60
2023/09/17 14:09:08;;;;;;;21.80;12.13;;;;;;;;;;6175590;23;20079;-58
2023/09/17 14:11:37;;;;;;;20.05;11.10;;;;;;;;;;6162528;23;20023;-58
2023/09/17 14:14:06;;;;;;;20.55;11.93;;;;;;;;;;6178789;23;20400;-57
2023/09/17 14:16:35;;;;;;;11.65;7.07;;;;;;;;;;6154761;23;20078;-57
2023/09/17 14:19:02;;;;;;;31.43;11.63;;;;;;;;;;6149083;23;20758;-57
2023/09/17 14:21:32;;;;;;;18.88;10.35;;;;;;;;;;6168472;23;20494;-57
2023/09/17 14:24:00;;;;;;;21.58;11.30;;;;;;;;;;6179433;23;20071;-58
2023/09/17 14:26:28;;;;;;;21.90;11.88;;;;;;;;;;6181092;23;20026;-58